sensor_id;sensor_type;location;lat;lon;timestamp;pressure;altitude;pressure_sealevel;temperature;humidity
13235;BME280;6683;48.506;9.050;2023-02-25T00:00:35;96952.00;;;8.06;58.55
13235;BME280;6683;48.506;9.050;2023-02-25T00:03:38;96963.53;;;8.05;58.51
13235;BME280;6683;48.506;9.050;2023-02-25T00:06:40;96951.59;;;8.02;58.51
13235;BME280;6683;48.506;9.050;2023-02-25T00:09:44;96949.16;;;8.01;58.49
13235;BME280;6683;48.506;9.050;2023-02-25T00:12:47;96957.03;;;8.01;58.86
13235;BME280;6683;48.506;9.050;2023-02-25T00:15:50;96964.31;;;7.99;58.67
13235;BME280;6683;48.506;9.050;2023-02-25T00:18:53;96967.34;;;7.96;58.65
13235;BME280;6683;48.506;9.050;2023-02-25T00:21:55;96965.72;;;7.95;58.82
13235;BME280;6683;48.506;9.050;2023-02-25T00:24:59;96971.16;;;7.93;58.69
13235;BME280;6683;48.506;9.050;2023-02-25T00:28:02;96977.63;;;7.91;58.79
13235;BME280;6683;48.506;9.050;2023-02-25T00:31:07;96984.91;;;7.89;58.82
13235;BME280;6683;48.506;9.050;2023-02-25T00:34:10;96995.81;;;7.86;58.80
13235;BME280;6683;48.506;9.050;2023-02-25T00:37:13;96991.97;;;7.82;58.72
13235;BME280;6683;48.506;9.050;2023-02-25T00:40:18;96994.16;;;7.78;58.93
13235;BME280;6683;48.506;9.050;2023-02-25T00:43:20;96990.16;;;7.76;59.05
13235;BME280;6683;48.506;9.050;2023-02-25T00:46:23;96966.50;;;7.69;59.04
13235;BME280;6683;48.506;9.050;2023-02-25T00:49:25;96973.16;;;7.65;59.25
13235;BME280;6683;48.506;9.050;2023-02-25T00:52:27;96989.28;;;7.62;59.41
13235;BME280;6683;48.506;9.050;2023-02-25T00:55:31;96994.94;;;7.59;59.70
13235;BME280;6683;48.506;9.050;2023-02-25T00:58:34;96993.69;;;7.55;59.89
13235;BME280;6683;48.506;9.050;2023-02-25T01:01:37;96998.16;;;7.55;59.77
13235;BME280;6683;48.506;9.050;2023-02-25T01:04:39;96985.03;;;7.55;59.77
13235;BME280;6683;48.506;9.050;2023-02-25T01:07:42;96980.75;;;7.54;60.20
13235;BME280;6683;48.506;9.050;2023-02-25T01:10:47;96990.44;;;7.53;60.20
13235;BME280;6683;48.506;9.050;2023-02-25T01:13:49;96986.00;;;7.54;60.40
13235;BME280;6683;48.506;9.050;2023-02-25T01:16:52;96985.03;;;7.55;60.69
13235;BME280;6683;48.506;9.050;2023-02-25T01:19:57;96994.28;;;7.57;60.74
13235;BME280;6683;48.506;9.050;2023-02-25T01:22:59;97001.38;;;7.57;61.08
13235;BME280;6683;48.506;9.050;2023-02-25T01:26:04;97005.81;;;7.56;61.04
13235;BME280;6683;48.506;9.050;2023-02-25T01:29:07;97009.44;;;7.55;61.31
13235;BME280;6683;48.506;9.050;2023-02-25T01:32:12;97005.00;;;7.56;61.54
13235;BME280;6683;48.506;9.050;2023-02-25T01:35:15;96997.56;;;7.59;61.83
13235;BME280;6683;48.506;9.050;2023-02-25T01:38:17;96989.69;;;7.59;61.83
13235;BME280;6683;48.506;9.050;2023-02-25T01:41:21;96987.47;;;7.63;62.00
13235;BME280;6683;48.506;9.050;2023-02-25T01:44:29;96999.41;;;7.65;62.46
13235;BME280;6683;48.506;9.050;2023-02-25T01:47:36;96998.38;;;7.66;62.14
13235;BME280;6683;48.506;9.050;2023-02-25T01:50:46;97003.03;;;7.64;62.35
13235;BME280;6683;48.506;9.050;2023-02-25T01:53:50;97011.91;;;7.63;62.59
13235;BME280;6683;48.506;9.050;2023-02-25T01:56:55;97017.16;;;7.63;62.69
13235;BME280;6683;48.506;9.050;2023-02-25T01:59:58;97010.69;;;7.66;62.82
13235;BME280;6683;48.506;9.050;2023-02-25T02:03:01;97011.50;;;7.66;63.17
13235;BME280;6683;48.506;9.050;2023-02-25T02:06:10;97009.69;;;7.67;63.23
13235;BME280;6683;48.506;9.050;2023-02-25T02:09:17;97019.19;;;7.68;63.35
13235;BME280;6683;48.506;9.050;2023-02-25T02:12:23;97017.16;;;7.70;63.51
13235;BME280;6683;48.506;9.050;2023-02-25T02:15:28;97032.53;;;7.73;63.50
13235;BME280;6683;48.506;9.050;2023-02-25T02:18:36;97030.53;;;7.75;63.73
13235;BME280;6683;48.506;9.050;2023-02-25T02:21:54;97034.97;;;7.74;63.84
13235;BME280;6683;48.506;9.050;2023-02-25T02:25:24;97015.81;;;7.74;63.84
13235;BME280;6683;48.506;9.050;2023-02-25T02:29:26;96998.19;;;7.74;64.12
13235;BME280;6683;48.506;9.050;2023-02-25T02:32:38;96994.97;;;7.72;64.17
13235;BME280;6683;48.506;9.050;2023-02-25T02:35:50;96993.16;;;7.73;64.38
13235;BME280;6683;48.506;9.050;2023-02-25T02:39:06;97011.53;;;7.73;64.44
13235;BME280;6683;48.506;9.050;2023-02-25T02:42:18;97016.78;;;7.73;64.31
13235;BME280;6683;48.506;9.050;2023-02-25T02:45:33;97009.28;;;7.70;64.56
13235;BME280;6683;48.506;9.050;2023-02-25T02:48:46;97017.00;;;7.71;64.83
13235;BME280;6683;48.506;9.050;2023-02-25T02:51:54;97015.97;;;7.72;65.01
13235;BME280;6683;48.506;9.050;2023-02-25T02:55:02;97027.28;;;7.73;65.28
13235;BME280;6683;48.506;9.050;2023-02-25T02:58:10;97024.28;;;7.76;65.48
13235;BME280;6683;48.506;9.050;2023-02-25T03:01:18;97027.09;;;7.74;65.38
13235;BME280;6683;48.506;9.050;2023-02-25T03:04:27;97032.16;;;7.76;65.62
13235;BME280;6683;48.506;9.050;2023-02-25T03:07:33;97027.69;;;7.76;65.66
13235;BME280;6683;48.506;9.050;2023-02-25T03:10:37;97034.78;;;7.76;65.77
13235;BME280;6683;48.506;9.050;2023-02-25T03:13:39;97034.78;;;7.76;65.57
13235;BME280;6683;48.506;9.050;2023-02-25T03:16:50;97036.00;;;7.73;65.81
13235;BME280;6683;48.506;9.050;2023-02-25T03:20:00;97034.19;;;7.74;66.10
13235;BME280;6683;48.506;9.050;2023-02-25T03:23:11;97036.00;;;7.73;66.20
13235;BME280;6683;48.506;9.050;2023-02-25T03:26:22;97030.75;;;7.73;66.29
13235;BME280;6683;48.506;9.050;2023-02-25T03:29:25;97037.81;;;7.73;66.26
13235;BME280;6683;48.506;9.050;2023-02-25T03:32:30;97036.16;;;7.72;66.25
13235;BME280;6683;48.506;9.050;2023-02-25T03:35:37;97033.94;;;7.69;66.45
13235;BME280;6683;48.506;9.050;2023-02-25T03:38:45;97041.00;;;7.68;66.31
13235;BME280;6683;48.506;9.050;2023-02-25T03:41:52;97037.78;;;7.66;66.71
13235;BME280;6683;48.506;9.050;2023-02-25T03:45:01;97047.66;;;7.64;66.86
13235;BME280;6683;48.506;9.050;2023-02-25T03:48:05;97049.47;;;7.64;66.82
13235;BME280;6683;48.506;9.050;2023-02-25T03:51:14;97046.84;;;7.64;67.12
13235;BME280;6683;48.506;9.050;2023-02-25T03:54:19;97046.84;;;7.64;66.86
13235;BME280;6683;48.506;9.050;2023-02-25T03:57:24;97057.56;;;7.62;67.31
13235;BME280;6683;48.506;9.050;2023-02-25T04:00:31;97061.97;;;7.62;67.24
13235;BME280;6683;48.506;9.050;2023-02-25T04:03:34;97058.16;;;7.64;67.09
13235;BME280;6683;48.506;9.050;2023-02-25T04:06:38;97060.19;;;7.62;67.05
13235;BME280;6683;48.506;9.050;2023-02-25T04:09:41;97063.41;;;7.64;67.40
13235;BME280;6683;48.506;9.050;2023-02-25T04:12:43;97057.34;;;7.64;67.63
13235;BME280;6683;48.506;9.050;2023-02-25T04:15:47;97060.78;;;7.64;67.56
13235;BME280;6683;48.506;9.050;2023-02-25T04:18:50;97068.47;;;7.66;67.88
13235;BME280;6683;48.506;9.050;2023-02-25T04:21:54;97069.06;;;7.68;67.84
13235;BME280;6683;48.506;9.050;2023-02-25T04:24:56;97071.69;;;7.68;67.84
13235;BME280;6683;48.506;9.050;2023-02-25T04:27:58;97078.78;;;7.67;67.79
13235;BME280;6683;48.506;9.050;2023-02-25T04:31:01;97073.09;;;7.64;67.83
13235;BME280;6683;48.506;9.050;2023-02-25T04:34:03;97079.38;;;7.63;67.83
13235;BME280;6683;48.506;9.050;2023-02-25T04:37:07;97075.94;;;7.62;67.98
13235;BME280;6683;48.506;9.050;2023-02-25T04:40:17;97077.75;;;7.62;68.40
13235;BME280;6683;48.506;9.050;2023-02-25T04:43:20;97066.63;;;7.60;68.18
13235;BME280;6683;48.506;9.050;2023-02-25T04:46:22;97077.31;;;7.58;68.10
13235;BME280;6683;48.506;9.050;2023-02-25T04:49:25;97068.84;;;7.56;68.18
13235;BME280;6683;48.506;9.050;2023-02-25T04:52:28;97067.19;;;7.55;68.07
13235;BME280;6683;48.506;9.050;2023-02-25T04:55:31;97074.28;;;7.55;68.62
13235;BME280;6683;48.506;9.050;2023-02-25T04:58:35;97071.06;;;7.53;68.65
13235;BME280;6683;48.506;9.050;2023-02-25T05:01:38;97073.06;;;7.51;68.52
13235;BME280;6683;48.506;9.050;2023-02-25T05:04:40;97068.38;;;7.46;68.58
13235;BME280;6683;48.506;9.050;2023-02-25T05:07:44;97071.59;;;7.42;68.61
13235;BME280;6683;48.506;9.050;2023-02-25T05:10:47;97076.44;;;7.38;68.60
13235;BME280;6683;48.506;9.050;2023-02-25T05:13:49;97084.88;;;7.34;68.74
13235;BME280;6683;48.506;9.050;2023-02-25T05:16:52;97097.38;;;7.32;68.91
13235;BME280;6683;48.506;9.050;2023-02-25T05:19:56;97100.38;;;7.28;68.89
13235;BME280;6683;48.506;9.050;2023-02-25T05:23:00;97096.94;;;7.28;69.12
13235;BME280;6683;48.506;9.050;2023-02-25T05:26:03;97092.91;;;7.25;68.81
13235;BME280;6683;48.506;9.050;2023-02-25T05:29:07;97095.06;;;7.22;69.24
13235;BME280;6683;48.506;9.050;2023-02-25T05:32:10;97100.72;;;7.19;68.72
13235;BME280;6683;48.506;9.050;2023-02-25T05:35:12;97108.34;;;7.14;68.93
13235;BME280;6683;48.506;9.050;2023-02-25T05:38:16;97118.44;;;7.10;68.82
13235;BME280;6683;48.506;9.050;2023-02-25T05:41:19;97109.75;;;7.10;69.23
13235;BME280;6683;48.506;9.050;2023-02-25T05:44:21;97111.94;;;7.06;69.29
13235;BME280;6683;48.506;9.050;2023-02-25T05:47:24;97128.66;;;7.05;69.27
13235;BME280;6683;48.506;9.050;2023-02-25T05:50:26;97119.38;;;7.03;69.42
13235;BME280;6683;48.506;9.050;2023-02-25T05:53:33;97123.38;;;6.99;69.19
13235;BME280;6683;48.506;9.050;2023-02-25T05:56:37;97124.59;;;6.96;69.25
13235;BME280;6683;48.506;9.050;2023-02-25T05:59:39;97127.78;;;6.92;69.27
13235;BME280;6683;48.506;9.050;2023-02-25T06:02:41;97127.50;;;6.87;69.02
13235;BME280;6683;48.506;9.050;2023-02-25T06:05:45;97124.81;;;6.80;69.18
13235;BME280;6683;48.506;9.050;2023-02-25T06:08:49;97128.41;;;6.73;69.15
13235;BME280;6683;48.506;9.050;2023-02-25T06:11:52;97127.34;;;6.67;68.82
13235;BME280;6683;48.506;9.050;2023-02-25T06:14:54;97123.84;;;6.60;69.09
13235;BME280;6683;48.506;9.050;2023-02-25T06:17:56;97126.84;;;6.57;69.15
13235;BME280;6683;48.506;9.050;2023-02-25T06:21:03;97132.47;;;6.54;69.25
13235;BME280;6683;48.506;9.050;2023-02-25T06:24:09;97139.69;;;6.52;69.02
13235;BME280;6683;48.506;9.050;2023-02-25T06:27:12;97144.31;;;6.50;69.06
13235;BME280;6683;48.506;9.050;2023-02-25T06:30:15;97157.00;;;6.47;69.08
13235;BME280;6683;48.506;9.050;2023-02-25T06:33:17;97157.97;;;6.45;69.18
13235;BME280;6683;48.506;9.050;2023-02-25T06:36:20;97161.97;;;6.41;69.03
13235;BME280;6683;48.506;9.050;2023-02-25T06:39:23;97174.66;;;6.38;69.11
13235;BME280;6683;48.506;9.050;2023-02-25T06:42:26;97176.19;;;6.32;69.15
13235;BME280;6683;48.506;9.050;2023-02-25T06:45:28;97189.03;;;6.27;69.14
13235;BME280;6683;48.506;9.050;2023-02-25T06:48:30;97185.94;;;6.24;69.26
13235;BME280;6683;48.506;9.050;2023-02-25T06:51:33;97181.91;;;6.21;68.78
13235;BME280;6683;48.506;9.050;2023-02-25T06:54:37;97174.59;;;6.17;69.17
13235;BME280;6683;48.506;9.050;2023-02-25T06:57:39;97172.97;;;6.16;69.59
13235;BME280;6683;48.506;9.050;2023-02-25T07:00:42;97177.38;;;6.15;69.17
13235;BME280;6683;48.506;9.050;2023-02-25T07:03:44;97178.19;;;6.16;69.74
13235;BME280;6683;48.506;9.050;2023-02-25T07:06:47;97186.69;;;6.18;69.18
13235;BME280;6683;48.506;9.050;2023-02-25T07:09:50;97179.47;;;6.20;69.32
13235;BME280;6683;48.506;9.050;2023-02-25T07:12:53;97174.06;;;6.21;69.72
13235;BME280;6683;48.506;9.050;2023-02-25T07:15:55;97176.47;;;6.23;70.01
13235;BME280;6683;48.506;9.050;2023-02-25T07:18:58;97176.09;;;6.26;69.97
13235;BME280;6683;48.506;9.050;2023-02-25T07:22:01;97187.88;;;6.30;70.02
13235;BME280;6683;48.506;9.050;2023-02-25T07:25:09;97195.78;;;6.36;69.96
13235;BME280;6683;48.506;9.050;2023-02-25T07:28:12;97192.41;;;6.42;69.67
13235;BME280;6683;48.506;9.050;2023-02-25T07:31:18;97200.75;;;6.46;69.74
13235;BME280;6683;48.506;9.050;2023-02-25T07:34:21;97205.25;;;6.52;70.11
13235;BME280;6683;48.506;9.050;2023-02-25T07:37:23;97203.66;;;6.58;70.20
13235;BME280;6683;48.506;9.050;2023-02-25T07:40:27;97201.13;;;6.64;70.44
13235;BME280;6683;48.506;9.050;2023-02-25T07:43:29;97200.66;;;6.75;70.36
13235;BME280;6683;48.506;9.050;2023-02-25T07:46:32;97199.50;;;6.84;70.00
13235;BME280;6683;48.506;9.050;2023-02-25T07:49:35;97207.91;;;6.94;70.18
13235;BME280;6683;48.506;9.050;2023-02-25T07:52:37;97200.06;;;7.01;70.30
13235;BME280;6683;48.506;9.050;2023-02-25T07:55:43;97191.47;;;7.07;70.50
13235;BME280;6683;48.506;9.050;2023-02-25T07:58:46;97184.25;;;7.15;70.31
13235;BME280;6683;48.506;9.050;2023-02-25T08:01:48;97180.28;;;7.19;69.95
13235;BME280;6683;48.506;9.050;2023-02-25T08:04:51;97169.38;;;7.22;69.63
13235;BME280;6683;48.506;9.050;2023-02-25T08:07:53;97170.75;;;7.18;69.71
13235;BME280;6683;48.506;9.050;2023-02-25T08:10:57;97175.38;;;7.16;69.58
13235;BME280;6683;48.506;9.050;2023-02-25T08:13:59;97176.22;;;7.17;70.01
13235;BME280;6683;48.506;9.050;2023-02-25T08:17:02;97183.69;;;7.20;70.09
13235;BME280;6683;48.506;9.050;2023-02-25T08:20:06;97188.00;;;7.28;70.49
13235;BME280;6683;48.506;9.050;2023-02-25T08:23:09;97182.25;;;7.45;70.63
13235;BME280;6683;48.506;9.050;2023-02-25T08:26:15;97167.41;;;7.59;70.26
13235;BME280;6683;48.506;9.050;2023-02-25T08:29:18;97170.09;;;7.65;69.92
13235;BME280;6683;48.506;9.050;2023-02-25T08:32:21;97171.69;;;7.66;69.85
13235;BME280;6683;48.506;9.050;2023-02-25T08:35:25;97177.00;;;7.73;70.17
13235;BME280;6683;48.506;9.050;2023-02-25T08:38:27;97178.69;;;7.87;70.26
13235;BME280;6683;48.506;9.050;2023-02-25T08:41:31;97189.69;;;8.03;70.34
13235;BME280;6683;48.506;9.050;2023-02-25T08:44:34;97194.44;;;8.21;70.19
13235;BME280;6683;48.506;9.050;2023-02-25T08:47:36;97177.09;;;8.33;69.87
13235;BME280;6683;48.506;9.050;2023-02-25T08:50:39;97184.44;;;8.44;69.67
13235;BME280;6683;48.506;9.050;2023-02-25T08:53:41;97185.03;;;8.46;69.13
13235;BME280;6683;48.506;9.050;2023-02-25T08:56:49;97189.69;;;8.44;69.04
13235;BME280;6683;48.506;9.050;2023-02-25T08:59:52;97199.59;;;8.42;68.82
13235;BME280;6683;48.506;9.050;2023-02-25T09:02:54;97192.28;;;8.38;68.71
13235;BME280;6683;48.506;9.050;2023-02-25T09:05:57;97188.84;;;8.37;68.72
13235;BME280;6683;48.506;9.050;2023-02-25T09:08:59;97188.66;;;8.39;68.58
13235;BME280;6683;48.506;9.050;2023-02-25T09:12:03;97197.16;;;8.34;68.38
13235;BME280;6683;48.506;9.050;2023-02-25T09:15:08;97194.03;;;8.24;67.93
13235;BME280;6683;48.506;9.050;2023-02-25T09:18:11;97199.28;;;8.18;68.08
13235;BME280;6683;48.506;9.050;2023-02-25T09:21:14;97191.34;;;8.11;68.26
13235;BME280;6683;48.506;9.050;2023-02-25T09:24:17;97194.34;;;8.08;68.26
13235;BME280;6683;48.506;9.050;2023-02-25T09:27:21;97193.75;;;8.06;68.20
13235;BME280;6683;48.506;9.050;2023-02-25T09:30:23;97200.19;;;8.03;68.03
13235;BME280;6683;48.506;9.050;2023-02-25T09:33:26;97193.72;;;7.99;67.95
13235;BME280;6683;48.506;9.050;2023-02-25T09:36:29;97190.25;;;7.99;68.07
13235;BME280;6683;48.506;9.050;2023-02-25T09:39:31;97188.06;;;8.02;68.31
13235;BME280;6683;48.506;9.050;2023-02-25T09:42:48;97187.91;;;8.11;68.39
13235;BME280;6683;48.506;9.050;2023-02-25T09:46:05;97177.84;;;8.21;68.38
13235;BME280;6683;48.506;9.050;2023-02-25T09:49:17;97178.34;;;8.37;68.24
13235;BME280;6683;48.506;9.050;2023-02-25T09:52:24;97178.19;;;8.58;68.15
13235;BME280;6683;48.506;9.050;2023-02-25T09:55:32;97174.38;;;8.80;67.62
13235;BME280;6683;48.506;9.050;2023-02-25T09:58:38;97171.19;;;9.05;67.72
13235;BME280;6683;48.506;9.050;2023-02-25T10:01:48;97169.16;;;9.39;67.11
13235;BME280;6683;48.506;9.050;2023-02-25T10:08:27;97167.94;;;10.38;65.41
13235;BME280;6683;48.506;9.050;2023-02-25T10:11:46;97158.84;;;10.66;64.90
13235;BME280;6683;48.506;9.050;2023-02-25T10:15:05;97157.78;;;11.04;64.40
13235;BME280;6683;48.506;9.050;2023-02-25T10:18:31;97154.50;;;11.34;64.33
13235;BME280;6683;48.506;9.050;2023-02-25T10:22:04;97165.88;;;11.59;63.80
13235;BME280;6683;48.506;9.050;2023-02-25T10:25:13;97152.56;;;11.47;63.16
13235;BME280;6683;48.506;9.050;2023-02-25T10:28:17;97154.22;;;11.42;63.44
13235;BME280;6683;48.506;9.050;2023-02-25T10:31:22;97151.63;;;11.35;63.08
13235;BME280;6683;48.506;9.050;2023-02-25T10:34:28;97149.28;;;11.27;62.51
13235;BME280;6683;48.506;9.050;2023-02-25T10:37:35;97150.72;;;11.23;62.81
13235;BME280;6683;48.506;9.050;2023-02-25T10:40:39;97159.28;;;11.18;62.34
13235;BME280;6683;48.506;9.050;2023-02-25T10:43:43;97152.88;;;11.08;62.13
13235;BME280;6683;48.506;9.050;2023-02-25T10:46:53;97153.59;;;10.97;62.15
13235;BME280;6683;48.506;9.050;2023-02-25T10:50:17;97153.47;;;10.79;62.57
13235;BME280;6683;48.506;9.050;2023-02-25T10:53:20;97156.81;;;10.68;62.21
13235;BME280;6683;48.506;9.050;2023-02-25T10:56:23;97145.13;;;10.51;62.52
13235;BME280;6683;48.506;9.050;2023-02-25T10:59:30;97155.19;;;10.29;62.64
13235;BME280;6683;48.506;9.050;2023-02-25T11:02:41;97139.63;;;10.14;62.93
13235;BME280;6683;48.506;9.050;2023-02-25T11:05:44;97142.25;;;10.01;63.04
13235;BME280;6683;48.506;9.050;2023-02-25T11:08:47;97142.13;;;9.90;63.06
13235;BME280;6683;48.506;9.050;2023-02-25T11:11:54;97137.47;;;9.79;63.20
13235;BME280;6683;48.506;9.050;2023-02-25T11:14:57;97131.59;;;9.77;63.13
13235;BME280;6683;48.506;9.050;2023-02-25T11:18:22;97130.13;;;10.00;63.42
13235;BME280;6683;48.506;9.050;2023-02-25T11:21:32;97131.72;;;10.14;63.25
13235;BME280;6683;48.506;9.050;2023-02-25T11:24:38;97124.41;;;10.16;62.70
13235;BME280;6683;48.506;9.050;2023-02-25T11:27:46;97135.38;;;10.13;63.07
13235;BME280;6683;48.506;9.050;2023-02-25T11:30:53;97155.03;;;10.04;62.42
13235;BME280;6683;48.506;9.050;2023-02-25T11:33:59;97140.09;;;9.85;63.02
13235;BME280;6683;48.506;9.050;2023-02-25T11:37:34;97142.97;;;9.71;63.63
13235;BME280;6683;48.506;9.050;2023-02-25T11:40:41;97143.19;;;9.62;63.60
13235;BME280;6683;48.506;9.050;2023-02-25T11:43:44;97128.00;;;9.58;63.92
13235;BME280;6683;48.506;9.050;2023-02-25T11:47:05;97133.69;;;9.55;64.21
13235;BME280;6683;48.506;9.050;2023-02-25T11:50:20;97123.34;;;9.53;64.45
13235;BME280;6683;48.506;9.050;2023-02-25T11:53:41;97121.31;;;9.55;64.76
13235;BME280;6683;48.506;9.050;2023-02-25T11:56:50;97118.50;;;9.57;64.53
13235;BME280;6683;48.506;9.050;2023-02-25T12:00:08;97132.47;;;9.57;64.41
13235;BME280;6683;48.506;9.050;2023-02-25T12:03:43;97136.50;;;9.60;64.67
13235;BME280;6683;48.506;9.050;2023-02-25T12:07:32;97127.00;;;9.65;64.79
13235;BME280;6683;48.506;9.050;2023-02-25T12:11:19;97122.09;;;9.69;64.56
13235;BME280;6683;48.506;9.050;2023-02-25T12:15:04;97117.22;;;9.73;64.90
13235;BME280;6683;48.506;9.050;2023-02-25T12:18:44;97119.84;;;9.79;64.78
13235;BME280;6683;48.506;9.050;2023-02-25T12:25:51;97121.44;;;9.87;64.64
13235;BME280;6683;48.506;9.050;2023-02-25T12:29:38;97104.22;;;9.91;64.39
13235;BME280;6683;48.506;9.050;2023-02-25T12:33:04;97115.38;;;9.86;64.50
13235;BME280;6683;48.506;9.050;2023-02-25T12:36:33;97113.13;;;9.83;64.55
13235;BME280;6683;48.506;9.050;2023-02-25T12:40:01;97112.75;;;9.80;64.40
13235;BME280;6683;48.506;9.050;2023-02-25T12:43:18;97118.44;;;9.77;64.07
13235;BME280;6683;48.506;9.050;2023-02-25T12:46:41;97108.09;;;9.75;64.55
13235;BME280;6683;48.506;9.050;2023-02-25T12:50:20;97109.94;;;9.75;64.28
13235;BME280;6683;48.506;9.050;2023-02-25T12:53:42;97116.63;;;9.71;64.17
13235;BME280;6683;48.506;9.050;2023-02-25T13:01:04;97114.00;;;9.71;64.85
13235;BME280;6683;48.506;9.050;2023-02-25T13:08:15;97112.13;;;9.84;65.05
13235;BME280;6683;48.506;9.050;2023-02-25T13:11:31;97113.94;;;9.90;64.37
13235;BME280;6683;48.506;9.050;2023-02-25T13:15:03;97125.31;;;9.91;64.45
13235;BME280;6683;48.506;9.050;2023-02-25T13:18:25;97113.13;;;9.90;64.19
13235;BME280;6683;48.506;9.050;2023-02-25T13:21:44;97105.84;;;9.85;63.92
13235;BME280;6683;48.506;9.050;2023-02-25T13:24:57;97099.16;;;9.83;64.18
13235;BME280;6683;48.506;9.050;2023-02-25T13:28:33;97100.16;;;9.88;64.07
13235;BME280;6683;48.506;9.050;2023-02-25T13:31:49;97103.38;;;9.97;64.01
13235;BME280;6683;48.506;9.050;2023-02-25T13:35:11;97091.38;;;10.07;64.40
13235;BME280;6683;48.506;9.050;2023-02-25T13:38:32;97093.69;;;10.28;63.92
13235;BME280;6683;48.506;9.050;2023-02-25T13:41:57;97080.84;;;10.45;63.65
13235;BME280;6683;48.506;9.050;2023-02-25T13:49:17;97083.88;;;10.49;62.79
13235;BME280;6683;48.506;9.050;2023-02-25T13:52:30;97087.59;;;10.34;62.62
13235;BME280;6683;48.506;9.050;2023-02-25T13:55:52;97080.38;;;10.17;62.59
13235;BME280;6683;48.506;9.050;2023-02-25T13:59:15;97088.13;;;10.05;63.20
13235;BME280;6683;48.506;9.050;2023-02-25T14:02:41;97086.53;;;9.98;63.00
13235;BME280;6683;48.506;9.050;2023-02-25T14:06:01;97086.38;;;9.86;63.51
13235;BME280;6683;48.506;9.050;2023-02-25T14:09:24;97085.59;;;9.79;63.31
13235;BME280;6683;48.506;9.050;2023-02-25T14:12:46;97085.00;;;9.71;63.08
13235;BME280;6683;48.506;9.050;2023-02-25T14:16:02;97096.22;;;9.59;63.23
13235;BME280;6683;48.506;9.050;2023-02-25T14:19:25;97097.66;;;9.49;63.13
13235;BME280;6683;48.506;9.050;2023-02-25T14:22:41;97104.53;;;9.37;63.40
13235;BME280;6683;48.506;9.050;2023-02-25T14:26:13;97110.44;;;9.26;63.24
13235;BME280;6683;48.506;9.050;2023-02-25T14:29:33;97115.72;;;9.19;63.63
13235;BME280;6683;48.506;9.050;2023-02-25T14:32:56;97121.97;;;9.12;63.55
13235;BME280;6683;48.506;9.050;2023-02-25T14:36:16;97130.91;;;9.04;63.85
13235;BME280;6683;48.506;9.050;2023-02-25T14:39:36;97120.38;;;8.98;63.68
13235;BME280;6683;48.506;9.050;2023-02-25T14:43:20;97123.00;;;8.91;63.87
13235;BME280;6683;48.506;9.050;2023-02-25T14:46:32;97118.97;;;8.89;63.81
13235;BME280;6683;48.506;9.050;2023-02-25T14:49:42;97117.34;;;8.88;63.84
13235;BME280;6683;48.506;9.050;2023-02-25T14:53:41;97117.72;;;8.84;64.18
13235;BME280;6683;48.506;9.050;2023-02-25T14:57:09;97117.13;;;8.82;64.19
13235;BME280;6683;48.506;9.050;2023-02-25T15:08:33;97138.16;;;8.82;64.41
13235;BME280;6683;48.506;9.050;2023-02-25T15:12:04;97133.31;;;8.79;64.48
13235;BME280;6683;48.506;9.050;2023-02-25T15:15:33;97135.13;;;8.79;64.74
13235;BME280;6683;48.506;9.050;2023-02-25T15:19:10;97127.63;;;8.82;64.53
13235;BME280;6683;48.506;9.050;2023-02-25T15:22:22;97116.94;;;8.84;64.56
13235;BME280;6683;48.506;9.050;2023-02-25T15:25:43;97129.88;;;8.85;64.41
13235;BME280;6683;48.506;9.050;2023-02-25T15:28:49;97135.75;;;8.88;64.30
13235;BME280;6683;48.506;9.050;2023-02-25T15:32:16;97143.06;;;8.92;64.86
13235;BME280;6683;48.506;9.050;2023-02-25T15:35:49;97144.88;;;8.98;64.10
13235;BME280;6683;48.506;9.050;2023-02-25T15:38:53;97150.97;;;9.05;64.04
13235;BME280;6683;48.506;9.050;2023-02-25T15:42:03;97147.31;;;9.06;64.26
13235;BME280;6683;48.506;9.050;2023-02-25T15:45:37;97135.97;;;9.06;64.24
13235;BME280;6683;48.506;9.050;2023-02-25T15:48:40;97142.84;;;9.07;64.02
13235;BME280;6683;48.506;9.050;2023-02-25T15:51:46;97154.00;;;9.09;63.98
13235;BME280;6683;48.506;9.050;2023-02-25T15:54:50;97153.78;;;9.10;63.70
13235;BME280;6683;48.506;9.050;2023-02-25T15:57:52;97154.81;;;9.09;64.08
13235;BME280;6683;48.506;9.050;2023-02-25T16:00:58;97143.84;;;9.06;63.87
13235;BME280;6683;48.506;9.050;2023-02-25T16:07:31;97146.69;;;8.98;63.81
13235;BME280;6683;48.506;9.050;2023-02-25T16:10:39;97151.56;;;8.94;64.29
13235;BME280;6683;48.506;9.050;2023-02-25T16:13:42;97145.25;;;8.95;63.80
13235;BME280;6683;48.506;9.050;2023-02-25T16:16:49;97138.00;;;8.91;63.90
13235;BME280;6683;48.506;9.050;2023-02-25T16:19:57;97152.16;;;8.90;63.98
13235;BME280;6683;48.506;9.050;2023-02-25T16:23:00;97154.38;;;8.86;63.68
13235;BME280;6683;48.506;9.050;2023-02-25T16:26:09;97151.31;;;8.82;63.99
13235;BME280;6683;48.506;9.050;2023-02-25T16:29:38;97151.31;;;8.82;64.25
13235;BME280;6683;48.506;9.050;2023-02-25T16:32:49;97162.06;;;8.81;64.37
13235;BME280;6683;48.506;9.050;2023-02-25T16:36:01;97167.53;;;8.79;64.28
13235;BME280;6683;48.506;9.050;2023-02-25T16:39:19;97169.94;;;8.74;64.51
13235;BME280;6683;48.506;9.050;2023-02-25T16:42:23;97169.94;;;8.74;63.97
13235;BME280;6683;48.506;9.050;2023-02-25T16:45:29;97173.75;;;8.72;64.07
13235;BME280;6683;48.506;9.050;2023-02-25T16:48:35;97181.88;;;8.70;64.30
13235;BME280;6683;48.506;9.050;2023-02-25T16:51:41;97185.91;;;8.66;64.06
13235;BME280;6683;48.506;9.050;2023-02-25T16:54:45;97181.06;;;8.63;64.08
13235;BME280;6683;48.506;9.050;2023-02-25T16:58:09;97196.41;;;8.60;64.37
13235;BME280;6683;48.506;9.050;2023-02-25T17:01:22;97189.53;;;8.59;64.07
13235;BME280;6683;48.506;9.050;2023-02-25T17:04:31;97197.81;;;8.56;64.31
13235;BME280;6683;48.506;9.050;2023-02-25T17:07:35;97201.63;;;8.53;64.08
13235;BME280;6683;48.506;9.050;2023-02-25T17:10:47;97212.38;;;8.52;64.31
13235;BME280;6683;48.506;9.050;2023-02-25T17:13:52;97213.56;;;8.49;63.89
13235;BME280;6683;48.506;9.050;2023-02-25T17:16:56;97221.66;;;8.48;63.97
13235;BME280;6683;48.506;9.050;2023-02-25T17:23:40;97228.50;;;8.36;64.08
13235;BME280;6683;48.506;9.050;2023-02-25T17:26:44;97224.84;;;8.30;64.22
13235;BME280;6683;48.506;9.050;2023-02-25T17:29:48;97227.84;;;8.27;64.34
13235;BME280;6683;48.506;9.050;2023-02-25T17:32:54;97236.72;;;8.26;64.36
13235;BME280;6683;48.506;9.050;2023-02-25T17:36:07;97242.34;;;8.23;64.40
13235;BME280;6683;48.506;9.050;2023-02-25T17:39:13;97241.13;;;8.19;64.08
13235;BME280;6683;48.506;9.050;2023-02-25T17:42:34;97244.75;;;8.18;64.71